createdAt,value
2023-05-22T07:21:33.397Z,4.60
2023-05-22T07:31:40.435Z,4.20
2023-05-22T07:41:51.639Z,3.90
2023-05-22T07:51:59.014Z,4.00
2023-05-22T08:02:06.545Z,4.00
2023-05-22T08:12:13.109Z,4.20
2023-05-22T08:22:20.308Z,4.10
2023-05-22T08:32:28.145Z,4.30
2023-05-22T08:42:35.942Z,4.40
2023-05-22T08:52:52.523Z,4.60
2023-05-22T09:02:59.197Z,4.50
2023-05-22T09:13:06.685Z,5.20
2023-05-22T09:23:19.187Z,4.60
2023-05-22T09:33:26.088Z,4.70
2023-05-22T09:43:32.852Z,4.80
2023-05-22T09:53:41.027Z,4.60
2023-05-22T10:03:49.633Z,4.50
2023-05-22T10:13:56.551Z,4.30
2023-05-22T10:24:03.259Z,4.50
2023-05-22T10:34:12.918Z,4.70
2023-05-22T10:44:19.810Z,5.00
2023-05-22T10:54:42.796Z,4.80
2023-05-22T11:04:49.675Z,4.50
2023-05-22T11:15:00.145Z,4.50
2023-05-22T11:25:18.032Z,4.50
2023-05-22T11:35:24.548Z,4.50
2023-05-22T11:45:31.076Z,4.50
2023-05-22T11:55:38.172Z,4.20
2023-05-22T12:05:47.514Z,5.10
2023-05-22T12:15:59.709Z,4.80
2023-05-22T12:26:10.972Z,5.00
2023-05-22T12:36:17.556Z,4.70
2023-05-22T12:46:24.135Z,4.70
2023-05-22T12:56:31.325Z,4.80
2023-05-22T13:06:37.870Z,4.90
2023-05-22T13:16:44.632Z,4.40
2023-05-22T13:26:51.617Z,4.20
2023-05-22T13:36:58.128Z,4.10
2023-05-22T13:47:05.047Z,4.40
2023-05-22T13:57:11.700Z,4.40
2023-05-22T14:07:18.263Z,4.60
2023-05-22T14:17:25.107Z,4.90
2023-05-22T14:27:32.168Z,5.00
2023-05-22T14:37:38.754Z,4.40
2023-05-22T14:47:45.403Z,5.20
2023-05-22T14:57:51.912Z,4.80
2023-05-22T15:08:01.284Z,4.70
2023-05-22T15:18:07.928Z,4.10
2023-05-22T15:28:14.693Z,4.50
2023-05-22T15:38:21.540Z,4.40
2023-05-22T15:48:28.210Z,4.90
2023-05-22T15:58:34.892Z,4.90
2023-05-22T16:08:41.449Z,3.70
2023-05-22T16:18:48.047Z,4.90
2023-05-22T16:28:54.581Z,4.70
2023-05-22T16:39:01.068Z,4.90
2023-05-22T16:49:07.630Z,4.80
2023-05-22T16:59:14.495Z,4.80
2023-05-22T17:09:22.062Z,5.20
2023-05-22T17:19:28.614Z,5.90
2023-05-22T17:29:35.202Z,5.40
2023-05-22T17:39:41.752Z,4.90
2023-05-22T17:49:48.243Z,5.00
2023-05-22T17:59:54.753Z,4.90
2023-05-22T18:10:01.330Z,5.80
2023-05-22T18:20:09.554Z,6.10
2023-05-22T18:30:16.179Z,5.90
2023-05-22T18:40:22.771Z,6.20
2023-05-22T18:50:29.285Z,8.70
2023-05-22T19:00:36.177Z,6.50
2023-05-22T19:10:43.221Z,5.90
2023-05-22T19:20:49.898Z,5.90
2023-05-22T19:30:59.019Z,6.30
2023-05-22T19:41:05.626Z,6.40
2023-05-22T19:51:12.297Z,6.80
2023-05-22T20:01:18.920Z,6.70
2023-05-22T20:11:25.465Z,7.40
2023-05-22T20:21:32.348Z,8.70
2023-05-22T20:31:38.985Z,7.60
2023-05-22T20:41:45.507Z,8.30
2023-05-22T20:51:53.249Z,8.60
2023-05-22T21:02:00.025Z,8.30
2023-05-22T21:12:06.676Z,9.00
2023-05-22T21:22:13.218Z,8.90
2023-05-22T21:32:19.815Z,8.90
2023-05-22T21:42:26.438Z,8.70
2023-05-22T21:52:32.965Z,8.40
2023-05-22T22:02:39.588Z,7.50
2023-05-22T22:12:46.187Z,9.80
2023-05-22T22:22:52.931Z,8.50
2023-05-22T22:32:59.586Z,7.70
2023-05-22T22:43:06.426Z,8.90
2023-05-22T22:53:12.959Z,9.10
2023-05-22T23:03:19.636Z,10.00
2023-05-22T23:13:26.777Z,9.40
2023-05-22T23:23:33.513Z,8.90
2023-05-22T23:33:40.071Z,8.30
2023-05-22T23:43:47.217Z,8.60
2023-05-22T23:53:53.759Z,8.60
